Home > Products > Valid Products > MTR

000
SAUS46 KSEW 300140
MTRSMP
SPECI KSMP 300140Z AUTO 28007KT 1 1/2SM UP BR OVC004 03/02 A3011 RMK
AO2 TWR VIS 8 VIS 1/2V5 UPB36 P0000 T00280017 $





000
SAUS46 KSEW 300131
MTRSMP
SPECI KSMP 300131Z AUTO VRB06KT 6SM BR BKN004 OVC013 03/02 A3011 RMK
AO2 T00280017 $





000
SAUS46 KSEW 300114
MTRSMP
SPECI KSMP 300114Z AUTO VRB05KT 7SM BKN005 OVC011 03/02 A3010 RMK
AO2 T00280017 $





000
SAUS46 KSEW 300108
MTRSMP
SPECI KSMP 300108Z AUTO 26007KT 210V290 2 1/2SM BR BKN003 BKN008
OVC012 03/02 A3010 RMK AO2 TWR VIS 8 T00280017 $





000
SAUS46 KSEW 300056
MTRSMP
METAR KSMP 300056Z AUTO VRB06KT 1SM BR BKN003 OVC009 03/02 A3009 RMK
AO2 TWR VIS 8 VIS 1/2V4 UPE05 SLP206 P0000 T00280017 $





000
SAUS46 KSEW 300056
MTRSMP
METAR KSMP 300056Z AUTO VRB06KT 1SM BR BKN003 OVC009 03/02 A3009 RMK
AO2 TWR VIS 8 VIS 1/2V4 UPE05 SLP206 P0000 T00280017 $





000
SAUS46 KSEW 300023
MTRSMP
SPECI KSMP 300023Z AUTO VRB05KT 1/4SM FG VV003 03/02 A3009 RMK AO2
TWR VIS 8 UPE05 P0000 T00280017 $





000
SAUS46 KSEW 300023
MTRSMP
SPECI KSMP 300023Z AUTO VRB05KT 1/4SM FG VV003 03/02 A3009 RMK AO2
TWR VIS 8 UPE05 P0000 T00280017 $





000
SAUS46 KSEW 300010
MTRSMP
SPECI KSMP 300010Z AUTO 25007KT 220V300 1/2SM FG VV003 03/02 A3009
RMK AO2 TWR VIS 8 UPE05 P0000 T00280017 $





000
SAUS46 KSEW 300010
MTRSMP
SPECI KSMP 300010Z AUTO 25007KT 220V300 1/2SM FG VV003 03/02 A3009
RMK AO2 TWR VIS 8 UPE05 P0000 T00280017 $





000
SAUS46 KSEW 292356
MTRSMP
METAR KSMP 292356Z AUTO VRB04KT 1/4SM UP FG BKN002 OVC008 03/02
A3008 RMK AO2 TWR VIS 8 UPB49 SLP203 P0000 60000 T00280017 10039
20017 53010 $





000
SAUS46 KSEW 292348
MTRSMP
SPECI KSMP 292348Z AUTO VRB06KT 1/2SM FG SCT002 BKN008 OVC013 03/02
A3008 RMK AO2 TWR VIS 8 T00280017 $





000
SAUS46 KSEW 292345
MTRSMP
SPECI KSMP 292345Z AUTO VRB06KT 1 3/4SM BR SCT002 BKN008 OVC013
03/02 A3008 RMK AO2 TWR VIS 8 T00280017 $





000
SAUS46 KSEW 292315
MTRSMP
SPECI KSMP 292314Z AUTO VRB06KT 10SM BKN006 OVC014 03/01 A3008 RMK
AO2 T00330011 $





000
SAUS46 KSEW 292315
MTRSMP
SPECI KSMP 292314Z AUTO VRB06KT 10SM BKN006 OVC014 03/01 A3008 RMK
AO2 T00330011 $





000
SAUS46 KSEW 292256
MTRSMP
METAR KSMP 292256Z AUTO VRB06KT 10SM FEW006 BKN010 OVC035 03/02
A3007 RMK AO2 RAB21E31 SLP197 P0000 T00330017 $





000
SAUS46 KSEW 292237
MTRSMP
SPECI KSMP 292236Z AUTO VRB03KT 10SM OVC009 03/02 A3006 RMK AO2
RAB21E31 P0000 T00330017 $





000
SAUS46 KSEW 292237
MTRSMP
SPECI KSMP 292236Z AUTO VRB03KT 10SM OVC009 03/02 A3006 RMK AO2
RAB21E31 P0000 T00330017 $





000
SAUS46 KSEW 292156
MTRSMP
METAR KSMP 292156Z AUTO VRB04KT 10SM OVC010 03/02 A3005 RMK AO2 CIG
005V014 SLP192 T00330017 $





000
SAUS46 KSEW 292129
MTRSMP
SPECI KSMP 292129Z AUTO VRB05KT 10SM SCT006 BKN011 OVC029 03/02
A3005 RMK AO2 T00330022 $





000
SAUS46 KSEW 292112
MTRSMP
SPECI KSMP 292112Z AUTO VRB06KT 9SM BKN002 OVC006 03/02 A3005 RMK
AO2 T00330017 $





000
SAUS46 KSEW 292104
MTRSMP
SPECI KSMP 292104Z AUTO VRB04KT 2SM BR OVC004 03/02 A3005 RMK AO2
TWR VIS 8 T00330022 $





000
SAUS46 KSEW 292056
MTRSMP
METAR KSMP 292056Z AUTO VRB06KT 1/2SM FG VV002 03/02 A3005 RMK AO2
TWR VIS 8 VIS 1/4V1 1/2 SLP189 60000 T00280017 51004 $





000
SAUS46 KSEW 292052
MTRSMP
SPECI KSMP 292052Z AUTO 30008KT 250V330 1/2SM FG VV002 03/02 A3005
RMK AO2 TWR VIS 8 $





000
SAUS46 KSEW 292052
MTRSMP
SPECI KSMP 292052Z AUTO 30008KT 250V330 1/2SM FG VV002 03/02 A3005
RMK AO2 TWR VIS 8 $





000
SAUS46 KSEW 291956
MTRSMP
METAR KSMP 291956Z AUTO VRB06KT 1/4SM FG VV002 03/02 A3004 RMK AO2
TWR VIS 8 UPB11E27 SLP187 P0000 T00330022 $





000
SAUS46 KSEW 291956
MTRSMP
METAR KSMP 291956Z AUTO VRB06KT 1/4SM FG VV002 03/02 A3004 RMK AO2
TWR VIS 8 UPB11E27 SLP187 P0000 T00330022 $





000
SAUS46 KSEW 291857
MTRSMP
METAR KSMP 291856Z AUTO VRB04KT 1/4SM FG VV002 02/01 A3003 RMK AO2
TWR VIS 8 SLP186 T00220011 $





000
SAUS46 KSEW 291757
MTRSMP
METAR KSMP 291756Z AUTO VRB05KT 1/4SM FG VV002 02/01 A3003 RMK AO2
TWR VIS 8 SLP184 60002 T00170006 10022 20011 53009 $





000
SAUS46 KSEW 291757
MTRSMP
METAR KSMP 291756Z AUTO VRB05KT 1/4SM FG VV002 02/01 A3003 RMK AO2
TWR VIS 8 SLP184 60002 T00170006 10022 20011 53009 $





000
SAUS46 KSEW 291656
MTRSMP
METAR KSMP 291656Z AUTO VRB06KT 1/4SM FG VV002 01/01 A3001 RMK AO2
TWR VIS 8 SLP180 T00110006 $





000
SAUS46 KSEW 291556
MTRSMP
METAR KSMP 291556Z AUTO VRB06KT 1/4SM FG VV002 01/00 A3001 RMK AO2
TWR VIS 8 UPE35 SLP178 P0001 T00110000 $





000
SAUS46 KSEW 291457
MTRSMP
METAR KSMP 291456Z AUTO VRB05KT M1/4SM UP FG VV002 02/01 A3000 RMK
AO2 TWR VIS 8 RAE1357UPB56 SLP173 P0000 60001 T00170006 55002 $





000
SAUS46 KSEW 291356
MTRSMP
METAR KSMP 291356Z AUTO VRB04KT 1/4SM -RA FG VV002 02/01 A2999 RMK
AO2 TWR VIS 8 RAB47 SLP172 P0001 T00170006 $





000
SAUS46 KSEW 291257
MTRSMP
METAR KSMP 291256Z AUTO VRB04KT 1/4SM FG VV002 02/01 A2999 RMK AO2
TWR VIS 8 SLP170 T00220006 $





000
SAUS46 KSEW 291156
MTRSMP
METAR KSMP 291156Z AUTO VRB05KT 1/4SM FG VV002 02/01 A3000 RMK AO2
TWR VIS 8 SLP172 60006 70006 T00220011 10033 20022 56007 $





000
SAUS46 KSEW 291156
MTRSMP
METAR KSMP 291156Z AUTO VRB05KT 1/4SM FG VV002 02/01 A3000 RMK AO2
TWR VIS 8 SLP172 60006 70006 T00220011 10033 20022 56007 $





000
SAUS46 KSEW 291138
MTRSMP
SPECI KSMP 291138Z AUTO VRB03KT 1/4SM FG VV002 02/01 A3000 RMK AO2
TWR VIS 8 T00220011 $





000
SAUS46 KSEW 291104
MTRSMP
SPECI KSMP 291104Z AUTO VRB03KT 1/4SM FG VV001 03/02 A3001 RMK AO2
TWR VIS 8 T00280017 $





000
SAUS46 KSEW 291056
MTRSMP
METAR KSMP 291056Z AUTO VRB04KT 1/4SM FG VV002 03/02 A3001 RMK AO2
TWR VIS 8 SLP173 T00280017 $





000
SAUS46 KSEW 290957
MTRSMP
METAR KSMP 290956Z AUTO VRB05KT 1/4SM FG VV002 03/02 A3001 RMK AO2
TWR VIS 8 RAB00E34 SLP175 P0001 T00280017 $





000
SAUS46 KSEW 290930
MTRSMP
SPECI KSMP 290930Z AUTO VRB05KT 1/4SM -RA FG VV002 03/02 A3001 RMK
AO2 TWR VIS 8 RAB00 P0001 T00330022 $





000
SAUS46 KSEW 290920
MTRSMP
SPECI KSMP 290920Z AUTO 28005KT 3/4SM -RA BR VV002 03/02 A3002 RMK
AO2 TWR VIS 8 RAB00 P0001 T00330022 $





000
SAUS46 KSEW 290920
MTRSMP
SPECI KSMP 290920Z AUTO 28005KT 3/4SM -RA BR VV002 03/02 A3002 RMK
AO2 TWR VIS 8 RAB00 P0001 T00330022 $





000
SAUS46 KSEW 290856
MTRSMP
METAR KSMP 290856Z AUTO VRB04KT 1/4SM FG VV002 03/02 A3002 RMK AO2
TWR VIS 8 RAE52 SLP178 P0001 60005 T00330022 58006 $





000
SAUS46 KSEW 290756
MTRSMP
METAR KSMP 290756Z AUTO VRB04KT 1/4SM -RA FG VV002 03/02 A3003 RMK
AO2 TWR VIS 8 RAE14B36 SLP183 P0002 T00330022 400560022 $





000
SAUS46 KSEW 290724
MTRSMP
SPECI KSMP 290723Z AUTO VRB04KT 1/4SM FG VV002 03/02 A3004 RMK AO2
TWR VIS 8 RAE14 P0001 T00330022 $





000
SAUS46 KSEW 290724
MTRSMP
SPECI KSMP 290723Z AUTO VRB04KT 1/4SM FG VV002 03/02 A3004 RMK AO2
TWR VIS 8 RAE14 P0001 T00330022 $





000
SAUS46 KSEW 290716
MTRSMP
SPECI KSMP 290715Z AUTO VRB05KT 1/2SM FG VV002 03/02 A3004 RMK AO2
TWR VIS 8 RAE14 P0001 T00330022 $





000
SAUS46 KSEW 290716
MTRSMP
SPECI KSMP 290715Z AUTO VRB05KT 1/2SM FG VV002 03/02 A3004 RMK AO2
TWR VIS 8 RAE14 P0001 T00330022 $





000
SAUS46 KSEW 290656
MTRSMP
METAR KSMP 290656Z AUTO VRB05KT 1/4SM -RA FG VV003 03/02 A3004 RMK
AO2 TWR VIS 8 RAB31 SLP186 P0002 T00330022 $





000
SAUS46 KSEW 290557
MTRSMP
METAR KSMP 290556Z AUTO VRB05KT 1/4SM FG VV002 03/02 A3005 RMK AO2
TWR VIS 8 SLP189 T00330022 10050 20033 58001 $





000
SAUS46 KSEW 290544
MTRSMP
SPECI KSMP 290543Z AUTO VRB03KT 1/4SM FG BKN002 OVC025 03/02 A3005
RMK AO2 TWR VIS 8 T00330022 $





000
SAUS46 KSEW 290534
MTRSMP
SPECI KSMP 290534Z AUTO VRB05KT 3/4SM BR SCT002 OVC025 03/02 A3005
RMK AO2 TWR VIS 8 T00330017 $





000
SAUS46 KSEW 290532
MTRSMP
SPECI KSMP 290532Z AUTO VRB04KT 2SM BR SCT002 OVC025 03/02 A3005 RMK
AO2 TWR VIS 8 T00330017 $





000
SAUS46 KSEW 290456
MTRSMP
METAR KSMP 290456Z AUTO VRB04KT 8SM OVC026 03/02 A3005 RMK AO2
SLP189 T00330017 $





000
SAUS46 KSEW 290356
MTRSMP
METAR KSMP 290356Z AUTO 26005KT 5SM BR FEW002 FEW015 OVC025 03/02
A3005 RMK AO2 SLP191 T00330022 $





000
SAUS46 KSEW 290334
MTRSMP
SPECI KSMP 290333Z AUTO VRB04KT 9SM BKN015 OVC022 04/02 A3005 RMK
AO2 T00390017 $





000
SAUS46 KSEW 290305
MTRSMP
SPECI KSMP 290304Z AUTO VRB06KT 7SM SCT009 OVC013 04/02 A3005 RMK
AO2 T00390022 $





000
SAUS46 KSEW 290257
MTRSMP
METAR KSMP 290256Z AUTO VRB05KT 7SM BKN009 OVC013 04/02 A3005 RMK
AO2 CIG 006V011 SLP189 T00390022 57003 $





000
SAUS46 KSEW 290156
MTRSMP
METAR KSMP 290156Z AUTO VRB04KT 5SM BR FEW005 OVC012 04/02 A3005 RMK
AO2 SLP190 T00390022 $





000
SAUS46 KSEW 290131
MTRSMP
SPECI KSMP 290131Z AUTO VRB06KT 7SM FEW006 OVC014 04/02 A3005 RMK
AO2 T00390022 $





000
SAUS46 KSEW 290119
MTRSMP
SPECI KSMP 290118Z AUTO VRB03KT 7SM BKN010 OVC014 04/02 A3005 RMK
AO2 CIG 006V013 T00440022 $





000
SAUS46 KSEW 290103
MTRSMP
SPECI KSMP 290103Z AUTO VRB04KT 8SM BKN009 OVC016 04/02 A3005 RMK
AO2 CIG 006V014 T00440022 $





000
SAUS46 KSEW 290103
MTRSMP
SPECI KSMP 290103Z AUTO VRB04KT 8SM BKN009 OVC016 04/02 A3005 RMK
AO2 CIG 006V014 T00440022 $





000
SAUS46 KSEW 290056
MTRSMP
METAR KSMP 290056Z AUTO VRB04KT 10SM SCT009 OVC014 04/02 A3006 RMK
AO2 SLP192 T00440022 $





000
SAUS46 KSEW 290054
MTRSMP
SPECI KSMP 290054Z AUTO VRB05KT 10SM SCT009 OVC014 04/02 A3006 RMK
AO2 $





000
SAUS46 KSEW 290054
MTRSMP
SPECI KSMP 290054Z AUTO VRB05KT 10SM SCT009 OVC014 04/02 A3006 RMK
AO2 $





000
SAUS46 KSEW 282356
MTRSMP
METAR KSMP 282356Z AUTO VRB04KT 10SM OVC006 05/02 A3006 RMK AO2 CIG
005V011 SLP193 T00500022 10056 20033 51006 $





000
SAUS46 KSEW 282356
MTRSMP
METAR KSMP 282356Z AUTO VRB04KT 10SM OVC006 05/02 A3006 RMK AO2 CIG
005V011 SLP193 T00500022 10056 20033 51006 $





000
SAUS46 KSEW 282306
MTRSMP
SPECI KSMP 282306Z AUTO VRB04KT 10SM OVC009 04/02 A3006 RMK AO2 CIG
005V011 T00440022 $





000
SAUS46 KSEW 282257
MTRSMP
METAR KSMP 282256Z AUTO VRB06KT 10SM OVC010 04/02 A3006 RMK AO2 CIG
006V011 SLP193 T00440022 $





000
SAUS46 KSEW 282257
MTRSMP
METAR KSMP 282256Z AUTO VRB06KT 10SM OVC010 04/02 A3006 RMK AO2 CIG
006V011 SLP193 T00440022 $





000
SAUS46 KSEW 282156
MTRSMP
METAR KSMP 282156Z AUTO VRB05KT 10SM OVC012 05/02 A3005 RMK AO2
SLP189 T00500022 $





000
SAUS46 KSEW 282107
MTRSMP
SPECI KSMP 282106Z AUTO VRB04KT 10SM OVC010 06/02 A3005 RMK AO2
T00560022 $





000
SAUS46 KSEW 282056
MTRSMP
METAR KSMP 282056Z AUTO VRB06KT 10SM OVC009 06/02 A3004 RMK AO2
SLP185 T00560022 58004 $





000
SAUS46 KSEW 281956
MTRSMP
METAR KSMP 281956Z AUTO VRB03KT 10SM OVC008 04/02 A3005 RMK AO2
SLP190 T00440022 $





000
SAUS46 KSEW 281856
MTRSMP
METAR KSMP 281856Z AUTO VRB03KT 10SM OVC007 04/02 A3006 RMK AO2
SLP192 T00390022 $





000
SAUS46 KSEW 281856
MTRSMP
METAR KSMP 281856Z AUTO VRB03KT 10SM OVC007 04/02 A3006 RMK AO2
SLP192 T00390022 $





000
SAUS46 KSEW 281756
MTRSMP
METAR KSMP 281756Z AUTO VRB04KT 7SM OVC005 03/02 A3005 RMK AO2
SLP193 T00330017 10033 20022 51003 $





000
SAUS46 KSEW 281756
MTRSMP
METAR KSMP 281756Z AUTO VRB04KT 7SM OVC005 03/02 A3005 RMK AO2
SLP193 T00330017 10033 20022 51003 $





000
SAUS46 KSEW 281736
MTRSMP
SPECI KSMP 281735Z AUTO VRB03KT 3SM BR OVC002 03/02 A3005 RMK AO2
TWR VIS 8 T00280022 $





000
SAUS46 KSEW 281736
MTRSMP
SPECI KSMP 281735Z AUTO VRB03KT 3SM BR OVC002 03/02 A3005 RMK AO2
TWR VIS 8 T00280022 $





000
SAUS46 KSEW 281732
MTRSMP
SPECI KSMP 281732Z AUTO 00000KT 1SM BR VV002 03/02 A3005 RMK AO2 TWR
VIS 8 T00280022 $





000
SAUS46 KSEW 281656
MTRSMP
METAR KSMP 281656Z AUTO VRB03KT M1/4SM FG VV002 03/02 A3005 RMK AO2
TWR VIS 8 SLP193 T00280017 $





000
SAUS46 KSEW 281624
MTRSMP
SPECI KSMP 281623Z AUTO VRB04KT M1/4SM FG VV002 03/02 A3005 RMK AO2
TWR VIS 8 T00280017 $





000
SAUS46 KSEW 281556
MTRSMP
METAR KSMP 281556Z AUTO VRB03KT M1/4SM FG VV001 03/02 A3005 RMK AO2
TWR VIS 8 SLP193 T00280017 $





000
SAUS46 KSEW 281456
MTRSMP
METAR KSMP 281456Z AUTO VRB03KT M1/4SM FG VV001 02/01 A3004 RMK AO2
TWR VIS 8 SLP191 T00220011 53008 $





000
SAUS46 KSEW 281357
MTRSMP
METAR KSMP 281356Z AUTO VRB03KT M1/4SM FG VV001 02/01 A3004 RMK AO2
TWR VIS 8 SLP188 T00220011 $





000
SAUS46 KSEW 281256
MTRSMP
METAR KSMP 281256Z AUTO VRB03KT M1/4SM FG VV001 02/01 A3002 RMK AO2
TWR VIS 8 SLP183 T00220011 $





000
SAUS46 KSEW 281156
MTRSMP
METAR KSMP 281156Z AUTO VRB03KT M1/4SM FG VV001 02/01 A3002 RMK AO2
TWR VIS 8 SLP181 T00220011 10022 20022 51004 $





000
SAUS46 KSEW 281156
MTRSMP
METAR KSMP 281156Z AUTO VRB03KT M1/4SM FG VV001 02/01 A3002 RMK AO2
TWR VIS 8 SLP181 T00220011 10022 20022 51004 $





000
SAUS46 KSEW 281057
MTRSMP
METAR KSMP 281056Z AUTO VRB03KT 1/4SM FG VV001 02/01 A3002 RMK AO2
TWR VIS 8 SLP181 T00220011 $





000
SAUS46 KSEW 281057
MTRSMP
METAR KSMP 281056Z AUTO VRB03KT 1/4SM FG VV001 02/01 A3002 RMK AO2
TWR VIS 8 SLP181 T00220011 $





000
SAUS46 KSEW 280956
MTRSMP
METAR KSMP 280956Z AUTO VRB04KT 1/4SM FG VV001 02/01 A3001 RMK AO2
TWR VIS 8 SLP178 T00220011 $





000
SAUS46 KSEW 280928
MTRSMP
SPECI KSMP 280928Z AUTO VRB04KT 1/4SM FG VV001 02/01 A3000 RMK AO2
TWR VIS 8 T00220011 $





000
SAUS46 KSEW 280928
MTRSMP
SPECI KSMP 280928Z AUTO VRB04KT 1/4SM FG VV001 02/01 A3000 RMK AO2
TWR VIS 8 T00220011 $





000
SAUS46 KSEW 280857
MTRSMP
METAR KSMP 280856Z AUTO VRB04KT 1/4SM FG VV002 02/01 A3001 RMK AO2
TWR VIS 8 SLP176 T00220011 53002 $





000
SAUS46 KSEW 280850
MTRSMP
SPECI KSMP 280849Z AUTO VRB04KT 1/4SM FG VV002 02/01 A3000 RMK AO2
TWR VIS 8 T00220011 $





000
SAUS46 KSEW 280850
MTRSMP
SPECI KSMP 280849Z AUTO VRB04KT 1/4SM FG VV002 02/01 A3000 RMK AO2
TWR VIS 8 T00220011 $





000
SAUS46 KSEW 280839
MTRSMP
SPECI KSMP 280838Z AUTO VRB03KT 1/4SM FG VV001 02/01 A3000 RMK AO2
TWR VIS 8 T00220011 $





000
SAUS46 KSEW 280756
MTRSMP
METAR KSMP 280756Z AUTO VRB03KT 1/4SM FG VV002 02/01 A3000 RMK AO2
TWR VIS 8 SLP174 T00220011 400330006 $





000
SAUS46 KSEW 280656
MTRSMP
METAR KSMP 280656Z AUTO 23005KT 1/4SM FG VV002 02/01 A3000 RMK AO2
TWR VIS 8 SLP175 T00220011 $





000
SAUS46 KSEW 280656
MTRSMP
METAR KSMP 280656Z AUTO 23005KT 1/4SM FG VV002 02/01 A3000 RMK AO2
TWR VIS 8 SLP175 T00220011 $





000
SAUS46 KSEW 280556
MTRSMP
METAR KSMP 280556Z AUTO VRB04KT 1/4SM FG VV002 02/01 A3000 RMK AO2
TWR VIS 8 SLP174 T00220011 10028 20022 50007 $





000
SAUS46 KSEW 280456
MTRSMP
METAR KSMP 280456Z AUTO VRB04KT 1/4SM FG VV002 02/01 A3000 RMK AO2
TWR VIS 8 SLP175 T00220011 $





000
SAUS46 KSEW 280356
MTRSMP
METAR KSMP 280356Z AUTO VRB05KT 1/4SM FG VV002 02/01 A2999 RMK AO2
TWR VIS 8 SLP173 T00220011 $





000
SAUS46 KSEW 280356
MTRSMP
METAR KSMP 280356Z AUTO VRB05KT 1/4SM FG VV002 02/01 A2999 RMK AO2
TWR VIS 8 SLP173 T00220011 $





000
SAUS46 KSEW 280321
MTRSMP
SPECI KSMP 280321Z AUTO 23004KT 1/4SM FG VV002 02/01 A2998 RMK AO2
TWR VIS 8 T00220011 $





000
SAUS46 KSEW 280321
MTRSMP
SPECI KSMP 280321Z AUTO 23004KT 1/4SM FG VV002 02/01 A2998 RMK AO2
TWR VIS 8 T00220011 $





000
SAUS46 KSEW 280257
MTRSMP
METAR KSMP 280256Z AUTO VRB04KT 1/2SM FG VV002 02/01 A2997 RMK AO2
TWR VIS 8 SLP168 T00220011 52000 $





000
SAUS46 KSEW 280253
MTRSMP
SPECI KSMP 280252Z AUTO VRB05KT 1/2SM FG VV002 02/01 A2997 RMK AO2
TWR VIS 8 $





000
SAUS46 KSEW 280242
MTRSMP
SPECI KSMP 280241Z AUTO VRB04KT 1 1/4SM BR OVC002 02/01 A2997 RMK
AO2 TWR VIS 8 VIS 3/4V2 T00220011 $





000
SAUS46 KSEW 280242
MTRSMP
SPECI KSMP 280241Z AUTO VRB04KT 1 1/4SM BR OVC002 02/01 A2997 RMK
AO2 TWR VIS 8 VIS 3/4V2 T00220011 $





000
SAUS46 KSEW 280228
MTRSMP
SPECI KSMP 280228Z AUTO VRB04KT 1/2SM FG VV002 02/01 A2997 RMK AO2
TWR VIS 8 T00220011 $





000
SAUS46 KSEW 280217
MTRSMP
SPECI KSMP 280217Z AUTO VRB04KT 1 1/4SM BR OVC002 02/01 A2997 RMK
AO2 TWR VIS 8 T00220011 $





000
SAUS46 KSEW 280207
MTRSMP
SPECI KSMP 280206Z AUTO VRB03KT 2SM BR OVC002 02/01 A2997 RMK AO2
TWR VIS 8 T00220011 $





000
SAUS46 KSEW 280203
MTRSMP
SPECI KSMP 280203Z AUTO VRB04KT 1SM BR VV002 02/01 A2997 RMK AO2 TWR
VIS 8 T00220011 $





000
SAUS46 KSEW 280203
MTRSMP
SPECI KSMP 280203Z AUTO VRB04KT 1SM BR VV002 02/01 A2997 RMK AO2 TWR
VIS 8 T00220011 $





000
SAUS46 KSEW 280156
MTRSMP
METAR KSMP 280156Z AUTO VRB03KT 1/4SM FG VV002 02/01 A2997 RMK AO2
TWR VIS 8 SLP167 T00220011 $





000
SAUS46 KSEW 280156
MTRSMP
METAR KSMP 280156Z AUTO VRB03KT 1/4SM FG VV002 02/01 A2997 RMK AO2
TWR VIS 8 SLP167 T00220011 $





000
SAUS46 KSEW 280138
MTRSMP
SPECI KSMP 280138Z AUTO VRB03KT 3/4SM BR BKN003 OVC009 02/01 A2997
RMK AO2 TWR VIS 8 T00220011 $





000
SAUS46 KSEW 280138
MTRSMP
SPECI KSMP 280138Z AUTO VRB03KT 3/4SM BR BKN003 OVC009 02/01 A2997
RMK AO2 TWR VIS 8 T00220011 $





000
SAUS46 KSEW 280122
MTRSMP
SPECI KSMP 280122Z AUTO VRB04KT 1SM BR VV002 02/01 A2997 RMK AO2 TWR
VIS 8 VIS 1/2V2 1/2 T00220011 $





000
SAUS46 KSEW 280056
MTRSMP
METAR KSMP 280056Z AUTO VRB04KT 1/2SM FG VV002 03/02 A2997 RMK AO2
TWR VIS 8 SLP166 T00280017 $





000
SAUS46 KSEW 280048
MTRSMP
SPECI KSMP 280048Z AUTO VRB04KT 1/2SM FG VV002 02/01 A2997 RMK AO2
TWR VIS 8 T00220011 $





000
SAUS46 KSEW 280048
MTRSMP
SPECI KSMP 280048Z AUTO VRB04KT 1/2SM FG VV002 02/01 A2997 RMK AO2
TWR VIS 8 T00220011 $





000
SAUS46 KSEW 280040
MTRSMP
SPECI KSMP 280040Z AUTO VRB03KT 1SM BR VV002 02/01 A2997 RMK AO2 TWR
VIS 8 T00220011 $





000
SAUS46 KSEW 280040
MTRSMP
SPECI KSMP 280040Z AUTO VRB03KT 1SM BR VV002 02/01 A2997 RMK AO2 TWR
VIS 8 T00220011 $





000
SAUS46 KSEW 272357
MTRSMP
METAR KSMP 272356Z AUTO VRB03KT 1/2SM FG VV002 02/01 A2997 RMK AO2
TWR VIS 8 SLP168 T00220011 10033 20022 51004 $





000
SAUS46 KSEW 272354
MTRSMP
SPECI KSMP 272353Z AUTO VRB03KT 1/4SM FG VV002 02/01 A2997 RMK AO2
TWR VIS 8 $





000
SAUS46 KSEW 272354
MTRSMP
SPECI KSMP 272353Z AUTO VRB03KT 1/4SM FG VV002 02/01 A2997 RMK AO2
TWR VIS 8 $





000
SAUS46 KSEW 272339
MTRSMP
SPECI KSMP 272338Z AUTO VRB04KT 1/2SM FG VV002 02/01 A2997 RMK AO2
TWR VIS 8 T00220011 $





000
SAUS46 KSEW 272329
MTRSMP
SPECI KSMP 272329Z AUTO VRB03KT 1/4SM FG VV002 02/01 A2997 RMK AO2
TWR VIS 8 T00220011 $





000
SAUS46 KSEW 272257
MTRSMP
METAR KSMP 272256Z AUTO VRB04KT 3/4SM BR VV002 02/01 A2997 RMK AO2
TWR VIS 8 SLP166 T00220011 $





000
SAUS46 KSEW 272243
MTRSMP
SPECI KSMP 272242Z AUTO 24005KT 3/4SM BR OVC002 02/01 A2997 RMK AO2
TWR VIS 8 T00220011 $





000
SAUS46 KSEW 272237
MTRSMP
SPECI KSMP 272236Z AUTO VRB04KT 1 3/4SM BR OVC002 03/01 A2997 RMK
AO2 TWR VIS 8 VIS 3/4V5 T00280011 $





000
SAUS46 KSEW 272229
MTRSMP
SPECI KSMP 272229Z AUTO VRB04KT 5SM BR OVC002 03/01 A2997 RMK AO2
T00280011 $





000
SAUS46 KSEW 272213
MTRSMP
SPECI KSMP 272213Z AUTO VRB04KT 2SM BR BKN002 OVC011 03/01 A2996 RMK
AO2 TWR VIS 8 VIS 1V4 T00280011 $





000
SAUS46 KSEW 272156
MTRSMP
METAR KSMP 272156Z AUTO VRB03KT 5SM BR OVC002 03/01 A2996 RMK AO2
SLP162 T00280011 $





000
SAUS46 KSEW 272108
MTRSMP
SPECI KSMP 272108Z AUTO VRB03KT 10SM BKN004 OVC010 03/01 A2996 RMK
AO2 T00280006 $





000
SAUS46 KSEW 272056
MTRSMP
METAR KSMP 272056Z AUTO VRB04KT 10SM BKN006 OVC010 03/01 A2995 RMK
AO2 SLP159 T00280006 53007 $





000
SAUS46 KSEW 271956
MTRSMP
METAR KSMP 271956Z AUTO VRB04KT 10SM BKN006 OVC055 03/01 A2994 RMK
AO2 CIG 005V009 SLP156 T00330006 $





000
SAUS46 KSEW 271946
MTRSMP
SPECI KSMP 271946Z AUTO VRB04KT 10SM BKN006 OVC050 03/01 A2994 RMK
AO2 T00330006 $





000
SAUS46 KSEW 271946
MTRSMP
SPECI KSMP 271946Z AUTO VRB04KT 10SM BKN006 OVC050 03/01 A2994 RMK
AO2 T00330006 $





000
SAUS46 KSEW 271906
MTRSMP
SPECI KSMP 271906Z AUTO VRB03KT 10SM FEW006 BKN046 OVC055 02/01
A2994 RMK AO2 T00220006 $





000
SAUS46 KSEW 271856
MTRSMP
METAR KSMP 271856Z AUTO 24005KT 10SM BKN006 OVC045 02/01 A2994 RMK
AO2 CIG 004V009 SLP153 T00220006 $





000
SAUS46 KSEW 271809
MTRSMP
SPECI KSMP 271809Z AUTO VRB03KT 10SM OVC006 02/01 A2993 RMK AO2 CIG
004V008 T00220006 $





000
SAUS46 KSEW 271809
MTRSMP
SPECI KSMP 271809Z AUTO VRB03KT 10SM OVC006 02/01 A2993 RMK AO2 CIG
004V008 T00220006 $





000
SAUS46 KSEW 271756
MTRSMP
METAR KSMP 271756Z AUTO VRB04KT 10SM OVC004 02/01 A2993 RMK AO2 CIG
004V007 SLP150 T00220006 10022 20006 53005 $





000
SAUS46 KSEW 271657
MTRSMP
METAR KSMP 271656Z AUTO VRB05KT 6SM BR OVC003 02/01 A2992 RMK AO2
SLP148 T00170006 $





000
SAUS46 KSEW 271657
MTRSMP
METAR KSMP 271656Z AUTO VRB05KT 6SM BR OVC003 02/01 A2992 RMK AO2
SLP148 T00170006 $





000
SAUS46 KSEW 271650
MTRSMP
SPECI KSMP 271649Z AUTO VRB03KT 4SM BR OVC003 02/01 A2992 RMK AO2
T00170006 $





000
SAUS46 KSEW 271642
MTRSMP
SPECI KSMP 271641Z AUTO VRB04KT 1 1/2SM BR OVC002 02/01 A2992 RMK
AO2 TWR VIS 8 VIS 3/4V3 T00170006 $





000
SAUS46 KSEW 271642
MTRSMP
SPECI KSMP 271641Z AUTO VRB04KT 1 1/2SM BR OVC002 02/01 A2992 RMK
AO2 TWR VIS 8 VIS 3/4V3 T00170006 $





000
SAUS46 KSEW 271628
MTRSMP
SPECI KSMP 271628Z AUTO VRB03KT 3/4SM BR VV002 02/00 A2992 RMK AO2
TWR VIS 8 T00170000 $





000
SAUS46 KSEW 271556
MTRSMP
METAR KSMP 271556Z AUTO 00000KT 1/4SM FG VV002 01/01 A2992 RMK AO2
TWR VIS 8 SLP147 T00110006 $





000
SAUS46 KSEW 271508
MTRSMP
SPECI KSMP 271508Z AUTO VRB03KT M1/4SM FG VV002 01/01 A2991 RMK AO2
TWR VIS 8 T00110006 $





000
SAUS46 KSEW 271456
MTRSMP
METAR KSMP 271456Z AUTO VRB03KT M1/4SM FG VV001 01/00 A2991 RMK AO2
TWR VIS 8 SLP145 T00110000 53002 $





000
SAUS46 KSEW 271456
MTRSMP
METAR KSMP 271456Z AUTO VRB03KT M1/4SM FG VV001 01/00 A2991 RMK AO2
TWR VIS 8 SLP145 T00110000 53002 $





000
SAUS46 KSEW 271448
MTRSMP
SPECI KSMP 271448Z AUTO VRB04KT M1/4SM FG VV002 01/00 A2991 RMK AO2
TWR VIS 8 T00110000 $





000
SAUS46 KSEW 271357
MTRSMP
METAR KSMP 271356Z AUTO VRB04KT M1/4SM FG VV001 01/00 A2991 RMK AO2
TWR VIS 8 SLP142 T00060000 $





000
SAUS46 KSEW 271256
MTRSMP
METAR KSMP 271256Z AUTO VRB04KT 1/4SM FG VV001 01/00 A2990 RMK AO2
TWR VIS 8 SLP139 T00110000 $





000
SAUS46 KSEW 271156
MTRSMP
METAR KSMP 271156Z AUTO VRB05KT 1/4SM FG VV001 01/00 A2991 RMK AO2
TWR VIS 8 SLP138 T00110000 10017 20011 56008 $





000
SAUS46 KSEW 271056
MTRSMP
METAR KSMP 271056Z AUTO VRB05KT 1/4SM FG VV001 01/00 A2991 RMK AO2
TWR VIS 8 SLP138 T00110000 $





000
SAUS46 KSEW 271019
MTRSMP
SPECI KSMP 271019Z AUTO VRB04KT 1/4SM FG VV001 01/00 A2992 RMK AO2
TWR VIS 8 T00110000 $





000
SAUS46 KSEW 271019
MTRSMP
SPECI KSMP 271019Z AUTO VRB04KT 1/4SM FG VV001 01/00 A2992 RMK AO2
TWR VIS 8 T00110000 $





000
SAUS46 KSEW 270957
MTRSMP
METAR KSMP 270956Z AUTO VRB04KT 1/4SM FG VV002 01/00 A2992 RMK AO2
TWR VIS 8 SLP141 T00110000 $





000
SAUS46 KSEW 270920
MTRSMP
SPECI KSMP 270920Z AUTO VRB04KT 1/4SM FG VV002 01/00 A2992 RMK AO2
TWR VIS 8 T00110000 $





000
SAUS46 KSEW 270856
MTRSMP
METAR KSMP 270856Z AUTO VRB04KT 1/4SM FG VV001 01/00 A2993 RMK AO2
TWR VIS 8 SLP145 T00110000 58005 $





000
SAUS46 KSEW 270756
MTRSMP
METAR KSMP 270756Z AUTO 24005KT 1/4SM FG VV001 01/00 A2994 RMK AO2
TWR VIS 8 SLP149 T00110000 400831017 $





000
SAUS46 KSEW 270747
MTRSMP
SPECI KSMP 270747Z AUTO VRB04KT 1/4SM FG VV001 01/00 A2994 RMK AO2
TWR VIS 8 T00110000 $





000
SAUS46 KSEW 270734
MTRSMP
SPECI KSMP 270734Z AUTO VRB05KT 1/4SM FG VV002 01/00 A2994 RMK AO2
TWR VIS 8 T00110000 $





000
SAUS46 KSEW 270723
MTRSMP
SPECI KSMP 270723Z AUTO VRB05KT 3/4SM BR VV002 01/00 A2994 RMK AO2
TWR VIS 8 T00110000 $





000
SAUS46 KSEW 270656
MTRSMP
METAR KSMP 270656Z AUTO VRB04KT 1 1/2SM BR OVC002 02/01 A2995 RMK
AO2 TWR VIS 8 SLP155 T00170006 $





000
SAUS46 KSEW 270652
MTRSMP
SPECI KSMP 270652Z AUTO VRB04KT 1 1/2SM BR OVC002 02/01 A2995 RMK
AO2 TWR VIS 8 $





000
SAUS46 KSEW 270610
MTRSMP
SPECI KSMP 270610Z AUTO VRB03KT 1SM BR VV002 02/01 A2996 RMK AO2 TWR
VIS 8 T00170006 $





000
SAUS46 KSEW 270610
MTRSMP
SPECI KSMP 270610Z AUTO VRB03KT 1SM BR VV002 02/01 A2996 RMK AO2 TWR
VIS 8 T00170006 $





000
SAUS46 KSEW 270602
MTRSMP
SPECI KSMP 270602Z AUTO 28004KT 1 3/4SM BR OVC002 02/01 A2996 RMK
AO2 TWR VIS 8 T00170006 $





000
SAUS46 KSEW 270556
MTRSMP
METAR KSMP 270556Z AUTO VRB03KT 4SM BR OVC002 02/01 A2996 RMK AO2
SLP161 T00170006 10067 20017 58001 $





000
SAUS46 KSEW 270536
MTRSMP
SPECI KSMP 270535Z AUTO VRB03KT 6SM BR OVC004 02/01 A2996 RMK AO2
CIG 002V007 T00220006 $





000
SAUS46 KSEW 270524
MTRSMP
SPECI KSMP 270523Z AUTO VRB03KT 8SM FEW002 BKN006 OVC050 02/01 A2996
RMK AO2 T00220006 $





000
SAUS46 KSEW 270508
MTRSMP
SPECI KSMP 270508Z AUTO VRB04KT 9SM FEW005 BKN055 OVC070 02/01 A2996
RMK AO2 T00220006 $





000
SAUS46 KSEW 270456
MTRSMP
METAR KSMP 270456Z AUTO VRB04KT 10SM BKN055 OVC070 02/01 A2996 RMK
AO2 SLP165 T00220006 $





000
SAUS46 KSEW 270356
MTRSMP
METAR KSMP 270356Z AUTO VRB04KT 10SM BKN060 OVC085 03/00 A2996 RMK
AO2 SLP165 T00280000 $





000
SAUS46 KSEW 270257
MTRSMP
METAR KSMP 270256Z AUTO VRB04KT 10SM BKN060 OVC080 03/00 A2996 RMK
AO2 SLP165 T00330000 58005 $





000
SAUS46 KSEW 270257
MTRSMP
METAR KSMP 270256Z AUTO VRB04KT 10SM BKN060 OVC080 03/00 A2996 RMK
AO2 SLP165 T00330000 58005 $





000
SAUS46 KSEW 270156
MTRSMP
METAR KSMP 270156Z AUTO VRB04KT 10SM SCT085 04/M01 A2997 RMK AO2
SLP166 T00441011 $





000
SAUS46 KSEW 270156
MTRSMP
METAR KSMP 270156Z AUTO VRB04KT 10SM SCT085 04/M01 A2997 RMK AO2
SLP166 T00441011 $





    US Dept of Commerce
    National Oceanic and Atmospheric Administration
    National Weather Service
    1325 East West Highway
    Silver Spring, MD 20910
    Page Author: NWS Internet Services Team
Disclaimer
Information Quality
Credits
Glossary
Privacy Policy
Freedom of Information Act (FOIA)
About Us
Career Opportunities